createdAt,value
2024-04-10T00:01:59.717Z,97646.28
2024-04-10T00:04:27.229Z,97653.59
2024-04-10T00:06:56.191Z,97652.03
2024-04-10T00:09:25.340Z,97656.72
2024-04-10T00:11:52.197Z,97657.44
2024-04-10T00:14:18.980Z,97666.75
2024-04-10T00:16:45.674Z,97666.75
2024-04-10T00:19:12.484Z,97675.59
2024-04-10T00:21:39.296Z,97670.59
2024-04-10T00:24:06.180Z,97674.09
2024-04-10T00:26:33.114Z,97676.41
2024-04-10T00:29:02.127Z,97678.38
2024-04-10T00:31:28.866Z,97677.97
2024-04-10T00:34:00.378Z,97663.72
2024-04-10T00:36:28.247Z,97674.53
2024-04-10T00:38:54.904Z,97667.94
2024-04-10T00:41:24.216Z,97679.09
2024-04-10T00:43:50.962Z,97677.97
2024-04-10T00:46:22.864Z,97671.41
2024-04-10T00:48:53.041Z,97674.09
2024-04-10T00:51:21.515Z,97663.22
2024-04-10T00:53:48.526Z,97673.31
2024-04-10T00:56:25.480Z,97687.22
2024-04-10T00:58:54.221Z,97686.06
2024-04-10T01:01:21.083Z,97681.06
2024-04-10T01:03:51.245Z,97687.59
2024-04-10T01:06:18.257Z,97690.31
2024-04-10T01:08:47.040Z,97696.84
2024-04-10T01:11:13.933Z,97697.63
2024-04-10T01:13:43.038Z,97703.03
2024-04-10T01:16:12.006Z,97703.00
2024-04-10T01:18:41.171Z,97692.56
2024-04-10T01:21:07.871Z,97699.91
2024-04-10T01:23:34.651Z,97703.78
2024-04-10T01:26:01.415Z,97693.31
2024-04-10T01:28:30.564Z,97708.75
2024-04-10T01:30:57.244Z,97701.81
2024-04-10T01:33:25.730Z,97697.53
2024-04-10T01:35:52.687Z,97702.16
2024-04-10T01:38:21.581Z,97700.59
2024-04-10T01:40:51.335Z,97703.66
2024-04-10T01:43:18.047Z,97707.50
2024-04-10T01:45:47.716Z,97709.75
2024-04-10T01:48:17.176Z,97711.28
2024-04-10T01:50:43.977Z,97711.31
2024-04-10T01:53:13.702Z,97706.69
2024-04-10T01:55:40.442Z,97708.59
2024-04-10T01:58:12.315Z,97704.75
2024-04-10T02:00:39.148Z,97704.00
2024-04-10T02:03:06.222Z,97705.56
2024-04-10T02:05:33.190Z,97702.09
2024-04-10T02:08:05.172Z,97694.34
2024-04-10T02:10:33.912Z,97689.38
2024-04-10T02:13:05.208Z,97705.97
2024-04-10T02:15:32.016Z,97702.81
2024-04-10T02:17:58.989Z,97697.78
2024-04-10T02:20:25.946Z,97681.56
2024-04-10T02:22:52.768Z,97691.63
2024-04-10T02:25:21.690Z,97695.91
2024-04-10T02:27:48.471Z,97698.16
2024-04-10T02:30:15.274Z,97690.44
2024-04-10T02:32:42.098Z,97701.22
2024-04-10T02:35:08.934Z,97698.13
2024-04-10T02:37:37.703Z,97703.47
2024-04-10T02:40:05.359Z,97701.88
2024-04-10T02:42:35.082Z,97708.38
2024-04-10T02:45:05.246Z,97710.72
2024-04-10T02:47:32.010Z,97709.97
2024-04-10T02:50:01.909Z,97706.47
2024-04-10T02:52:31.926Z,97713.41
2024-04-10T02:54:58.626Z,97712.63
2024-04-10T02:57:27.616Z,97719.16
2024-04-10T02:59:54.263Z,97713.03
2024-04-10T03:02:23.600Z,97720.38
2024-04-10T03:04:50.429Z,97730.03
2024-04-10T03:07:19.336Z,97719.63
2024-04-10T03:09:48.425Z,97727.66
2024-04-10T03:12:15.236Z,97741.50
2024-04-10T03:14:43.993Z,97745.94
2024-04-10T03:17:14.466Z,97752.03
2024-04-10T03:19:46.191Z,97763.59
2024-04-10T03:22:13.449Z,97762.00
2024-04-10T03:24:42.362Z,97761.19
2024-04-10T03:27:11.726Z,97762.66
2024-04-10T03:29:38.496Z,97757.31
2024-04-10T03:32:07.873Z,97757.69
2024-04-10T03:34:34.590Z,97753.41
2024-04-10T03:37:01.312Z,97744.19
2024-04-10T03:39:27.999Z,97741.78
2024-04-10T03:41:54.692Z,97743.66
2024-04-10T03:44:24.638Z,97746.34
2024-04-10T03:46:53.813Z,97736.66
2024-04-10T03:49:20.536Z,97742.03
2024-04-10T03:51:49.422Z,97752.13
2024-04-10T03:54:16.162Z,97750.22
2024-04-10T03:56:45.344Z,97759.81
2024-04-10T03:59:12.089Z,97762.69
2024-04-10T04:01:38.829Z,97761.84
2024-04-10T04:04:08.238Z,97763.75
2024-04-10T04:06:37.300Z,97771.38
2024-04-10T04:09:09.538Z,97772.47
2024-04-10T04:11:41.375Z,97766.63
2024-04-10T04:14:08.595Z,97768.50
2024-04-10T04:16:38.128Z,97763.53
2024-04-10T04:19:04.893Z,97776.84
2024-04-10T04:21:32.889Z,97789.31
2024-04-10T04:23:59.997Z,97800.22
2024-04-10T04:26:29.182Z,97797.72
2024-04-10T04:28:55.999Z,97803.75
2024-04-10T04:31:25.031Z,97809.03
2024-04-10T04:33:51.953Z,97826.78
2024-04-10T04:36:23.439Z,97836.25
2024-04-10T04:38:52.601Z,97837.16
2024-04-10T04:41:22.144Z,97836.78
2024-04-10T04:43:48.982Z,97836.47
2024-04-10T04:46:20.937Z,97841.47
2024-04-10T04:48:47.803Z,97837.81
2024-04-10T04:51:19.412Z,97838.34
2024-04-10T04:53:46.139Z,97838.94
2024-04-10T04:56:15.169Z,97835.16
2024-04-10T04:58:46.421Z,97837.66
2024-04-10T05:01:13.152Z,97850.00
2024-04-10T05:04:01.146Z,97859.34
2024-04-10T05:06:28.278Z,97857.13
2024-04-10T05:08:55.059Z,97863.25
2024-04-10T05:11:22.652Z,97852.16
2024-04-10T05:13:49.592Z,97846.78
2024-04-10T05:16:18.552Z,97851.47
2024-04-10T05:18:45.571Z,97859.19
2024-04-10T05:21:12.271Z,97865.44
2024-04-10T05:23:41.559Z,97867.38
2024-04-10T05:26:08.271Z,97864.69
2024-04-10T05:28:37.581Z,97862.81
2024-04-10T05:31:05.688Z,97867.84
2024-04-10T05:33:32.531Z,97865.59
2024-04-10T05:36:00.532Z,97866.84
2024-04-10T05:38:33.503Z,97862.66
2024-04-10T05:41:00.360Z,97872.38
2024-04-10T05:43:29.547Z,97874.28
2024-04-10T05:45:56.964Z,97884.03
2024-04-10T05:48:23.907Z,97881.47
2024-04-10T05:50:56.974Z,97875.66
2024-04-10T05:53:26.277Z,97869.59
2024-04-10T05:55:55.418Z,97878.63
2024-04-10T05:58:24.427Z,97882.78
2024-04-10T06:00:52.428Z,97882.34
2024-04-10T06:03:23.178Z,97885.66
2024-04-10T06:05:50.113Z,97883.69
2024-04-10T06:08:17.021Z,97886.75
2024-04-10T06:10:43.936Z,97886.91
2024-04-10T06:13:10.700Z,97884.16
2024-04-10T06:15:37.504Z,97876.28
2024-04-10T06:18:04.506Z,97886.88
2024-04-10T06:20:31.275Z,97890.75
2024-04-10T06:22:58.595Z,97890.69
2024-04-10T06:25:28.126Z,97890.38
2024-04-10T06:27:57.130Z,97897.78
2024-04-10T06:30:23.921Z,97900.47
2024-04-10T06:32:53.105Z,97915.84
2024-04-10T06:35:20.430Z,97919.69
2024-04-10T06:37:49.700Z,97921.03
2024-04-10T06:40:18.821Z,97924.13
2024-04-10T06:42:47.804Z,97926.63
2024-04-10T06:45:16.821Z,97917.84
2024-04-10T06:47:44.209Z,97921.63
2024-04-10T06:50:14.296Z,97921.13
2024-04-10T06:52:46.209Z,97926.03
2024-04-10T06:55:12.957Z,97929.41
2024-04-10T06:57:41.873Z,97925.47
2024-04-10T07:00:14.555Z,97926.81
2024-04-10T07:02:42.942Z,97924.25
2024-04-10T07:05:09.788Z,97916.78
2024-04-10T07:07:36.492Z,97919.22
2024-04-10T07:10:06.559Z,97925.56
2024-04-10T07:12:34.261Z,97925.00
2024-04-10T07:15:04.162Z,97927.53
2024-04-10T07:17:31.893Z,97931.97
2024-04-10T07:19:58.812Z,97930.19
2024-04-10T07:22:30.369Z,97934.31
2024-04-10T07:24:57.125Z,97930.50
2024-04-10T07:27:23.887Z,97939.28
2024-04-10T07:29:52.687Z,97935.44
2024-04-10T07:32:19.499Z,97940.50
2024-04-10T07:34:46.250Z,97940.03
2024-04-10T07:37:15.440Z,97937.22
2024-04-10T07:39:44.690Z,97944.41
2024-04-10T07:42:13.728Z,97950.13
2024-04-10T07:44:47.806Z,97944.84
2024-04-10T07:47:16.905Z,97949.75
2024-04-10T07:49:47.523Z,97949.09
2024-04-10T07:52:14.210Z,97949.53
2024-04-10T07:54:40.949Z,97959.34
2024-04-10T07:57:10.100Z,97957.22
2024-04-10T07:59:38.085Z,97958.28
2024-04-10T08:02:07.846Z,97959.13
2024-04-10T08:04:34.579Z,97959.88
2024-04-10T08:07:04.653Z,97963.72
2024-04-10T08:09:35.974Z,97960.25
2024-04-10T08:12:07.537Z,97966.06
2024-04-10T08:14:36.915Z,97959.50
2024-04-10T08:17:06.745Z,97965.31
2024-04-10T08:19:38.242Z,97966.09
2024-04-10T08:22:05.957Z,97963.75
2024-04-10T08:24:32.620Z,97965.66
2024-04-10T08:27:03.412Z,97960.66
2024-04-10T08:29:30.173Z,97955.22
2024-04-10T08:32:00.239Z,97963.38
2024-04-10T08:34:29.938Z,97967.22
2024-04-10T08:36:57.488Z,97977.25
2024-04-10T08:39:27.226Z,97980.66
2024-04-10T08:41:57.125Z,97993.94
2024-04-10T08:44:29.782Z,97992.72
2024-04-10T08:46:58.548Z,98000.31
2024-04-10T08:49:30.646Z,98003.66
2024-04-10T08:51:57.799Z,98017.81
2024-04-10T08:54:25.054Z,98027.66
2024-04-10T08:56:51.742Z,98026.47
2024-04-10T08:59:18.417Z,98028.41
2024-04-10T09:01:47.442Z,98026.13
2024-04-10T09:04:16.182Z,98038.84
2024-04-10T09:06:45.296Z,98049.97
2024-04-10T09:09:16.445Z,98041.91
2024-04-10T09:11:43.623Z,98052.69
2024-04-10T09:14:16.520Z,98050.81
2024-04-10T09:16:50.547Z,98049.63
2024-04-10T09:19:19.073Z,98050.47
2024-04-10T09:21:56.055Z,98054.38
2024-04-10T09:24:30.628Z,98050.53
2024-04-10T09:27:00.843Z,98051.69
2024-04-10T09:29:31.490Z,98042.41
2024-04-10T09:32:09.443Z,98049.38
2024-04-10T09:34:37.109Z,98046.25
2024-04-10T09:37:09.922Z,98045.75
2024-04-10T09:39:37.051Z,98053.59
2024-04-10T09:42:10.725Z,98046.78
2024-04-10T09:44:42.605Z,98042.47
2024-04-10T09:47:15.642Z,98039.59
2024-04-10T09:49:46.286Z,98037.00
2024-04-10T09:52:16.124Z,98024.47
2024-04-10T09:54:44.201Z,98017.50
2024-04-10T09:57:13.129Z,98022.69
2024-04-10T09:59:40.254Z,98019.41
2024-04-10T10:02:09.435Z,98018.25
2024-04-10T10:04:39.914Z,98021.22
2024-04-10T10:07:06.713Z,98026.09
2024-04-10T10:09:38.158Z,98022.78
2024-04-10T10:12:05.356Z,98016.34
2024-04-10T10:14:32.430Z,97988.75
2024-04-10T10:18:33.666Z,98004.47
2024-04-10T10:21:10.742Z,98000.06
2024-04-10T10:23:45.768Z,98010.78
2024-04-10T10:26:16.877Z,98010.13
2024-04-10T10:28:48.379Z,98011.66
2024-04-10T10:31:20.407Z,98018.44
2024-04-10T10:33:49.908Z,98010.53
2024-04-10T10:36:19.217Z,98010.09
2024-04-10T10:38:50.842Z,98007.13
2024-04-10T10:41:19.250Z,98001.03
2024-04-10T10:43:48.732Z,98028.16
2024-04-10T10:46:17.669Z,98018.09
2024-04-10T10:48:44.711Z,98017.81
2024-04-10T10:51:11.402Z,98017.28
2024-04-10T10:53:40.411Z,98022.06
2024-04-10T10:56:07.232Z,98010.09
2024-04-10T10:58:34.106Z,98010.78
2024-04-10T11:01:07.517Z,98016.25
2024-04-10T11:03:34.581Z,98013.66
2024-04-10T11:06:14.269Z,98010.97
2024-04-10T11:08:41.502Z,98010.56
2024-04-10T11:11:11.955Z,97999.13
2024-04-10T11:13:51.334Z,97988.09
2024-04-10T11:16:28.917Z,97989.00
2024-04-10T11:18:56.282Z,97980.13
2024-04-10T11:21:25.839Z,97985.34
2024-04-10T11:23:55.467Z,97981.47
2024-04-10T11:26:22.545Z,97988.59
2024-04-10T11:28:54.853Z,97983.91
2024-04-10T11:31:22.012Z,97987.97
2024-04-10T11:33:49.219Z,97979.75
2024-04-10T11:36:18.263Z,97974.00
2024-04-10T11:38:45.263Z,97968.59
2024-04-10T11:41:16.761Z,97971.09
2024-04-10T11:43:43.461Z,97968.63
2024-04-10T11:46:12.861Z,97972.75
2024-04-10T11:48:40.150Z,97978.09
2024-04-10T11:51:07.289Z,97980.78
2024-04-10T11:53:37.052Z,97971.63
2024-04-10T11:56:04.638Z,97980.34
2024-04-10T11:58:31.742Z,97980.66
2024-04-10T12:01:00.716Z,97985.72
2024-04-10T12:03:27.621Z,97987.56
2024-04-10T12:05:59.030Z,97976.03
2024-04-10T12:08:28.009Z,97979.69
2024-04-10T12:10:57.183Z,97973.44
2024-04-10T12:13:23.982Z,97969.91
2024-04-10T12:15:52.992Z,97978.19
2024-04-10T12:18:19.847Z,97955.94
2024-04-10T12:20:47.567Z,97969.13
2024-04-10T12:23:14.344Z,97950.13
2024-04-10T12:25:45.827Z,97957.91
2024-04-10T12:28:12.537Z,97960.16
2024-04-10T12:30:41.530Z,97960.03
2024-04-10T12:33:08.415Z,97970.56
2024-04-10T12:35:56.935Z,97971.72
2024-04-10T12:38:23.941Z,97969.28
2024-04-10T12:40:59.986Z,97956.53
2024-04-10T12:43:31.495Z,97958.69
2024-04-10T12:45:58.221Z,97957.28
2024-04-10T12:48:25.053Z,97954.59
2024-04-10T12:50:53.007Z,97942.66
2024-04-10T12:53:19.837Z,97943.69
2024-04-10T12:55:55.840Z,97937.88
2024-04-10T12:58:24.832Z,97948.44
2024-04-10T13:00:54.049Z,97945.13
2024-04-10T13:03:25.963Z,97946.25
2024-04-10T13:05:59.631Z,97958.69
2024-04-10T13:08:27.346Z,97954.75
2024-04-10T13:11:15.989Z,97953.63
2024-04-10T13:13:44.753Z,97955.34
2024-04-10T13:16:12.062Z,97957.84
2024-04-10T13:18:45.600Z,97957.72
2024-04-10T13:21:12.468Z,97962.16
2024-04-10T13:23:42.272Z,97960.41
2024-04-10T13:26:10.900Z,97953.13
2024-04-10T13:28:39.280Z,97952.22
2024-04-10T13:31:13.606Z,97961.72
2024-04-10T13:33:45.953Z,97959.97
2024-04-10T13:36:14.681Z,97966.84
2024-04-10T13:38:47.041Z,97963.53
2024-04-10T13:41:14.937Z,97956.78
2024-04-10T13:43:47.935Z,97971.81
2024-04-10T13:46:15.115Z,97966.41
2024-04-10T13:48:45.400Z,97967.56
2024-04-10T13:51:27.923Z,97959.25
2024-04-10T13:53:55.388Z,97965.09
2024-04-10T13:56:22.657Z,97959.53
2024-04-10T13:58:50.323Z,97960.19
2024-04-10T14:01:19.258Z,97954.88
2024-04-10T14:03:48.098Z,97954.91
2024-04-10T14:06:15.307Z,97957.38
2024-04-10T14:08:43.699Z,97955.47
2024-04-10T14:11:10.570Z,97950.34
2024-04-10T14:13:38.373Z,97948.03
2024-04-10T14:16:08.391Z,97950.91
2024-04-10T14:18:38.349Z,97950.19
2024-04-10T14:21:09.563Z,97942.13
2024-04-10T14:23:39.713Z,97948.34
2024-04-10T14:26:15.031Z,97952.91
2024-04-10T14:28:42.537Z,97966.69
2024-04-10T14:31:13.580Z,97967.56
2024-04-10T14:33:42.927Z,97961.69
2024-04-10T14:36:12.572Z,97969.16
2024-04-10T14:38:44.725Z,97971.81
2024-04-10T14:41:13.805Z,97975.63
2024-04-10T14:43:40.636Z,97974.84
2024-04-10T14:46:14.341Z,97971.13
2024-04-10T14:48:44.819Z,97980.00
2024-04-10T14:51:14.626Z,97984.13
2024-04-10T14:53:43.782Z,97988.72
2024-04-10T14:56:19.898Z,98007.13
2024-04-10T14:58:49.651Z,98006.53
2024-04-10T15:01:23.298Z,97995.53
2024-04-10T15:03:55.262Z,98005.53
2024-04-10T15:06:22.352Z,98001.88
2024-04-10T15:08:49.540Z,97987.53
2024-04-10T15:11:27.060Z,97999.63
2024-04-10T15:13:59.074Z,98001.28
2024-04-10T15:16:27.799Z,98003.22
2024-04-10T15:19:02.624Z,98001.97
2024-04-10T15:21:32.321Z,98011.19
2024-04-10T15:23:59.252Z,98006.19
2024-04-10T15:26:30.827Z,98002.97
2024-04-10T15:28:57.552Z,98011.34
2024-04-10T15:31:24.802Z,98013.19
2024-04-10T15:33:51.674Z,98005.00
2024-04-10T15:36:19.518Z,98004.06
2024-04-10T15:38:46.374Z,98009.56
2024-04-10T15:41:13.645Z,98015.97
2024-04-10T15:43:42.578Z,98019.53
2024-04-10T15:46:13.632Z,98015.19
2024-04-10T15:48:44.793Z,98020.19
2024-04-10T15:51:15.444Z,98021.06
2024-04-10T15:53:43.184Z,98017.41
2024-04-10T15:56:11.447Z,98021.59
2024-04-10T15:58:40.064Z,98028.41
2024-04-10T16:01:11.613Z,98035.47
2024-04-10T16:03:44.064Z,98042.59
2024-04-10T16:06:16.372Z,98046.84
2024-04-10T16:08:43.824Z,98045.00
2024-04-10T16:11:18.205Z,98057.81
2024-04-10T16:13:45.867Z,98046.63
2024-04-10T16:16:18.286Z,98050.56
2024-04-10T16:18:46.446Z,98049.78
2024-04-10T16:21:14.279Z,98048.59
2024-04-10T16:23:47.406Z,98059.81
2024-04-10T16:26:16.161Z,98056.25
2024-04-10T16:28:45.112Z,98050.41
2024-04-10T16:31:16.690Z,98055.00
2024-04-10T16:33:46.448Z,98053.47
2024-04-10T16:36:14.028Z,98048.81
2024-04-10T16:38:41.654Z,98063.16
2024-04-10T16:41:08.730Z,98062.47
2024-04-10T16:43:38.051Z,98061.63
2024-04-10T16:46:06.585Z,98066.72
2024-04-10T16:48:33.541Z,98059.28
2024-04-10T16:51:02.351Z,98071.72
2024-04-10T16:53:29.366Z,98064.78
2024-04-10T16:55:56.672Z,98071.06
2024-04-10T16:58:23.724Z,98071.44
2024-04-10T17:01:11.358Z,98076.50
2024-04-10T17:03:43.730Z,98066.41
2024-04-10T17:06:11.289Z,98074.94
2024-04-10T17:08:40.551Z,98082.34
2024-04-10T17:11:19.172Z,98080.38
2024-04-10T17:13:48.603Z,98086.22
2024-04-10T17:16:17.729Z,98093.31
2024-04-10T17:19:03.351Z,98097.56
2024-04-10T17:21:48.886Z,98099.13
2024-04-10T17:24:19.168Z,98102.19
2024-04-10T17:26:49.303Z,98102.59
2024-04-10T17:29:23.147Z,98094.75
2024-04-10T17:31:52.879Z,98094.81
2024-04-10T17:34:20.358Z,98106.81
2024-04-10T17:36:47.434Z,98100.31
2024-04-10T17:39:14.318Z,98111.59
2024-04-10T17:41:41.364Z,98106.50
2024-04-10T17:44:08.128Z,98107.25
2024-04-10T17:46:35.154Z,98106.19
2024-04-10T17:49:09.922Z,98106.56
2024-04-10T17:51:40.312Z,98107.72
2024-04-10T17:54:07.069Z,98109.66
2024-04-10T17:56:35.897Z,98107.31
2024-04-10T17:59:06.208Z,98110.91
2024-04-10T18:01:32.856Z,98108.19
2024-04-10T18:04:03.003Z,98105.50
2024-04-10T18:06:30.053Z,98106.69
2024-04-10T18:08:59.993Z,98108.22
2024-04-10T18:11:31.431Z,98108.25
2024-04-10T18:14:00.391Z,98113.69
2024-04-10T18:16:29.425Z,98105.56
2024-04-10T18:18:58.348Z,98111.00
2024-04-10T18:21:27.748Z,98109.84
2024-04-10T18:23:56.928Z,98114.88
2024-04-10T18:26:26.041Z,98112.94
2024-04-10T18:28:52.691Z,98118.38
2024-04-10T18:31:19.419Z,98117.97
2024-04-10T18:33:46.316Z,98125.31
2024-04-10T18:36:13.275Z,98126.88
2024-04-10T18:38:41.892Z,98126.47
2024-04-10T18:41:13.554Z,98137.34
2024-04-10T18:43:42.853Z,98133.84
2024-04-10T18:46:10.727Z,98138.09
2024-04-10T18:48:41.512Z,98135.38
2024-04-10T18:51:25.234Z,98137.34
2024-04-10T18:53:52.234Z,98141.22
2024-04-10T18:56:21.273Z,98140.03
2024-04-10T18:58:48.231Z,98151.66
2024-04-10T19:01:15.449Z,98154.38
2024-04-10T19:03:45.281Z,98159.81
2024-04-10T19:06:14.400Z,98155.94
2024-04-10T19:08:46.841Z,98158.66
2024-04-10T19:11:18.445Z,98155.94
2024-04-10T19:13:45.356Z,98157.09
2024-04-10T19:16:14.765Z,98167.94
2024-04-10T19:18:44.418Z,98166.00
2024-04-10T19:21:11.933Z,98169.88
2024-04-10T19:23:38.874Z,98160.97
2024-04-10T19:26:08.676Z,98165.97
2024-04-10T19:28:35.654Z,98160.56
2024-04-10T19:31:03.416Z,98165.19
2024-04-10T19:33:30.878Z,98165.59
2024-04-10T19:36:12.446Z,98165.22
2024-04-10T19:38:45.557Z,98169.06
2024-04-10T19:41:14.247Z,98177.63
2024-04-10T19:43:45.290Z,98168.31
2024-04-10T19:46:13.274Z,98162.13
2024-04-10T19:48:40.411Z,98159.03
2024-04-10T19:51:07.558Z,98174.09
2024-04-10T19:53:35.350Z,98169.84
2024-04-10T19:56:10.647Z,98174.09
2024-04-10T19:58:38.927Z,98177.59
2024-04-10T20:01:12.568Z,98174.47
2024-04-10T20:03:43.182Z,98178.34
2024-04-10T20:06:13.376Z,98171.75
2024-04-10T20:08:41.377Z,98181.03
2024-04-10T20:11:09.584Z,98177.94
2024-04-10T20:13:38.888Z,98185.69
2024-04-10T20:16:10.491Z,98186.41
2024-04-10T20:18:40.775Z,98189.13
2024-04-10T20:21:12.410Z,98189.47
2024-04-10T20:23:42.181Z,98183.25
2024-04-10T20:26:09.256Z,98182.41
2024-04-10T20:28:38.795Z,98191.66
2024-04-10T20:31:09.648Z,98191.22
2024-04-10T20:33:43.259Z,98188.06
2024-04-10T20:36:11.452Z,98189.53
2024-04-10T20:38:39.073Z,98194.91
2024-04-10T20:41:11.525Z,98191.31
2024-04-10T20:43:43.748Z,98200.63
2024-04-10T20:46:12.574Z,98201.75
2024-04-10T20:48:43.504Z,98207.44
2024-04-10T20:51:14.819Z,98217.88
2024-04-10T20:53:45.506Z,98215.38
2024-04-10T20:56:16.960Z,98221.31
2024-04-10T20:58:43.985Z,98216.25
2024-04-10T21:01:14.399Z,98222.50
2024-04-10T21:03:45.622Z,98215.44
2024-04-10T21:06:17.085Z,98217.66
2024-04-10T21:09:06.145Z,98227.41
2024-04-10T21:11:56.308Z,98217.94
2024-04-10T21:14:42.554Z,98222.09
2024-04-10T21:17:28.225Z,98225.22
2024-04-10T21:20:13.209Z,98224.31
2024-04-10T21:23:01.092Z,98228.38
2024-04-10T21:25:53.382Z,98239.47
2024-04-10T21:28:41.405Z,98241.88
2024-04-10T21:31:29.251Z,98233.78
2024-04-10T21:34:17.084Z,98233.34
2024-04-10T21:37:04.736Z,98237.19
2024-04-10T21:39:50.284Z,98249.19
2024-04-10T21:42:38.054Z,98242.59
2024-04-10T21:45:23.705Z,98249.44
2024-04-10T21:48:09.155Z,98244.00
2024-04-10T21:50:54.532Z,98249.38
2024-04-10T21:53:40.073Z,98242.47
2024-04-10T21:56:25.905Z,98253.22
2024-04-10T21:59:12.333Z,98250.47
2024-04-10T22:02:05.523Z,98255.09
2024-04-10T22:04:56.483Z,98255.41
2024-04-10T22:07:43.162Z,98255.81
2024-04-10T22:10:10.040Z,98257.34
2024-04-10T22:12:40.107Z,98253.81
2024-04-10T22:15:11.688Z,98261.53
2024-04-10T22:18:02.034Z,98264.16
2024-04-10T22:20:49.609Z,98271.13
2024-04-10T22:23:35.181Z,98261.38
2024-04-10T22:26:02.465Z,98265.56
2024-04-10T22:28:32.070Z,98258.31
2024-04-10T22:31:01.828Z,98258.34
2024-04-10T22:33:34.087Z,98269.97
2024-04-10T22:36:03.593Z,98275.22
2024-04-10T22:38:30.470Z,98275.47
2024-04-10T22:40:57.206Z,98285.06
2024-04-10T22:43:26.256Z,98285.84
2024-04-10T22:45:58.789Z,98279.78
2024-04-10T22:48:25.606Z,98276.28
2024-04-10T22:50:55.808Z,98274.75
2024-04-10T22:53:25.901Z,98267.81
2024-04-10T22:55:52.581Z,98281.31
2024-04-10T22:58:19.225Z,98275.09
2024-04-10T23:00:48.275Z,98281.63
2024-04-10T23:03:17.322Z,98285.75
2024-04-10T23:05:51.858Z,98281.97
2024-04-10T23:10:55.072Z,98278.44
2024-04-10T23:13:21.770Z,98283.38
2024-04-10T23:15:55.858Z,98283.41
2024-04-10T23:18:32.648Z,98277.22
2024-04-10T23:21:14.071Z,98279.47
2024-04-10T23:23:40.794Z,98293.38
2024-04-10T23:26:07.435Z,98275.16
2024-04-10T23:28:34.137Z,98297.94
2024-04-10T23:31:03.065Z,98289.31
2024-04-10T23:33:32.318Z,98284.69
2024-04-10T23:35:59.465Z,98286.91
2024-04-10T23:38:26.210Z,98293.66
2024-04-10T23:40:53.633Z,98290.25
2024-04-10T23:43:20.344Z,98290.34
2024-04-10T23:45:55.049Z,98281.59
2024-04-10T23:48:25.966Z,98280.59
2024-04-10T23:50:52.972Z,98263.63
2024-04-10T23:53:19.672Z,98270.53
2024-04-10T23:55:49.329Z,98276.41
2024-04-10T23:58:18.221Z,98274.81
